hwlogo.jpg (8581 bytes)
Home Your Weather Products Services Weather On Your Site Contact
HW Version Logo
Weather Info
Your Weather (Options)
Canadian Weather
International Weather
Enter your " Place, State", US Zip Code or ICAO:  
Forecast Information Radar Information
Rankin Inlet, Nunavut, Canada  Lat: 62.78N, Lon: 92.12W
ICAO Used: CYRT
Current Conditions
Updated: 12:00 PM CST THU FEB 22 2018
Sun & Moon Information
Light Snow
Light Snow
Temp: -22°C
Humidity: 83%
Wind Speed: ESE 13 MPH G 18
Barometer: 1005 mb
Dewpoint: -24°C
Heat Index: -22°C
Wind Chill: -33°C
Civil Twilight: 6:53 AM CST Moon Phase:
Waxing Gibbous Moon
Sunrise: 7:40 AM CST
Sunset: 5:03 PM CST
Civil Twilight: 5:51 PM CST
Forecast for Rankin Inlet, NU:
(Forecast based on TAF for )
0600 PM CST WED FEB 21 2018
  
AFTERNOON EVENING OVERNIGHT
Fair Fair Fair
ZoneCast:
Dated: 0600 PM CST WED FEB 21 2018
Afternoon...Becoming fair with winds from the northeast at 17 mph.

Evening...Fair with winds from the northeast at 17 mph.

Overnight...Fair with winds from the northeast at 17 mph. Turning mostly cloudy with winds from the north at 17 mph.

Original Encoded TAF:
Dated: 0600 PM CST WED FEB 21 2018
2018/02/22 18:42
TAF TAF CYRT 221738Z 2218/2306 12015KT 5SM -SN OVC050 
      TEMPO 2218/2303 2SM -SN BLSN OVC025 
      BECMG 2220/2222 04015KT 
     FM230300 36015KT P6SM BKN050 
      RMK NXT FCST BY 230000Z